Time;durP1;ratioP1;P1;durP2;ratioP2;P2;SDS_P1;SDS_P2;PMS_P1;PMS_P2;Temp;Humidity;BMP_temperature;BMP_pressure;BME280_temperature;BME280_humidity;BME280_pressure;Samples;Min_cycle;Max_cycle;Signal;HPM_P1;HPM_P2
2022/03/07 00:00:48;;;;;;;;;;;;;;;-1.97;100.00;102714.38;5210257;28;19913;-80
2022/03/07 00:03:18;;;;;;;;;;;;;;;-2.00;100.00;102714.63;5213244;28;19917;-80
2022/03/07 00:05:48;;;;;;;;;;;;;;;-2.03;100.00;102713.13;5231059;28;19944;-81
2022/03/07 00:08:19;;;;;;;;;;;;;;;-2.08;100.00;102710.00;5230670;28;19919;-80
2022/03/07 00:10:49;;;;;;;;;;;;;;;-2.10;100.00;102704.84;5230900;28;20010;-81
2022/03/07 00:13:19;;;;;;;;;;;;;;;-2.11;100.00;102707.59;5212774;28;20473;-80
2022/03/07 00:15:50;;;;;;;;;;;;;;;-2.14;100.00;102714.00;5213383;28;19919;-80
2022/03/07 00:18:20;;;;;;;;;;;;;;;-2.16;100.00;102710.63;5212816;28;20027;-80
2022/03/07 00:20:50;;;;;;;;;;;;;;;-2.17;100.00;102716.91;5216281;28;19971;-79
2022/03/07 00:23:21;;;;;;;;;;;;;;;-2.18;100.00;102717.03;5234468;28;19925;-78
2022/03/07 00:25:51;;;;;;;;;;;;;;;-2.25;100.00;102719.31;5217247;28;19923;-80
2022/03/07 00:28:21;;;;;;;;;;;;;;;-2.29;100.00;102717.06;5241630;28;19916;-80
2022/03/07 00:30:52;;;;;;;;;;;;;;;-2.26;100.00;102716.81;5237577;28;19917;-80
2022/03/07 00:33:22;;;;;;;;;;;;;;;-2.24;100.00;102717.53;5234402;28;19920;-80
2022/03/07 00:35:52;;;;;;;;;;;;;;;-2.24;100.00;102728.94;5216306;28;19917;-80
2022/03/07 00:38:23;;;;;;;;;;;;;;;-2.30;100.00;102718.84;5216399;28;19913;-79
2022/03/07 00:40:53;;;;;;;;;;;;;;;-2.36;100.00;102723.84;5216133;28;19920;-81
2022/03/07 00:43:24;;;;;;;;;;;;;;;-2.38;100.00;102731.91;5233869;28;20337;-80
2022/03/07 00:45:54;;;;;;;;;;;;;;;-2.44;100.00;102729.75;5215853;28;19920;-79
2022/03/07 00:48:24;;;;;;;;;;;;;;;-2.51;100.00;102731.22;5233472;28;19919;-80
2022/03/07 00:50:54;;;;;;;;;;;;;;;-2.60;100.00;102737.25;5233862;28;19941;-80
2022/03/07 00:53:25;;;;;;;;;;;;;;;-2.61;100.00;102740.88;5233456;28;19917;-80
2022/03/07 00:55:56;;;;;;;;;;;;;;;-2.66;100.00;102738.59;5216666;28;19920;-80
2022/03/07 00:58:26;;;;;;;;;;;;;;;-2.61;100.00;102735.59;5233747;28;19956;-80
2022/03/07 01:00:56;;;;;;;;;;;;;;;-2.68;100.00;102737.03;5233836;28;19913;-80
2022/03/07 01:03:26;;;;;;;;;;;;;;;-2.76;100.00;102737.63;5215818;28;19923;-81
2022/03/07 01:05:57;;;;;;;;;;;;;;;-2.80;100.00;102737.03;5233905;28;19996;-80
2022/03/07 01:08:27;;;;;;;;;;;;;;;-2.74;100.00;102736.56;5234068;28;19920;-80
2022/03/07 01:10:57;;;;;;;;;;;;;;;-2.72;100.00;102745.22;5216817;28;20397;-79
2022/03/07 01:13:29;;;;;;;;;;;;;;;-2.73;100.00;102742.69;5233729;28;19913;-80
2022/03/07 01:15:59;;;;;;;;;;;;;;;-2.68;100.00;102745.81;5215705;28;19936;-80
2022/03/07 01:18:29;;;;;;;;;;;;;;;-2.68;100.00;102744.97;5234433;28;19912;-81
2022/03/07 01:20:59;;;;;;;;;;;;;;;-2.65;100.00;102739.44;5233610;28;20400;-79
2022/03/07 01:23:30;;;;;;;;;;;;;;;-2.67;100.00;102741.34;5233378;28;19916;-78
2022/03/07 01:26:02;;;;;;;;;;;;;;;-2.73;100.00;102740.03;5233468;28;19967;-78
2022/03/07 01:28:32;;;;;;;;;;;;;;;-2.77;100.00;102739.44;5233127;28;19923;-80
2022/03/07 01:31:02;;;;;;;;;;;;;;;-2.72;100.00;102734.63;5232359;28;19912;-79
2022/03/07 01:33:32;;;;;;;;;;;;;;;-2.75;100.00;102732.22;5214949;28;19913;-78
2022/03/07 01:36:03;;;;;;;;;;;;;;;-2.76;100.00;102727.91;5231674;28;20003;-78
2022/03/07 01:38:33;;;;;;;;;;;;;;;-2.80;100.00;102731.75;5231197;28;19913;-80
2022/03/07 01:41:03;;;;;;;;;;;;;;;-2.85;100.00;102728.63;5232150;28;19913;-80
2022/03/07 01:43:34;;;;;;;;;;;;;;;-2.91;100.00;102731.78;5231805;28;20492;-80
2022/03/07 01:46:04;;;;;;;;;;;;;;;-2.99;100.00;102722.78;5234926;28;20003;-80
2022/03/07 01:48:35;;;;;;;;;;;;;;;-3.00;100.00;102724.59;5234220;28;20378;-80
2022/03/07 01:51:07;;;;;;;;;;;;;;;-3.04;100.00;102719.66;5232523;28;20303;-78
2022/03/07 01:53:37;;;;;;;;;;;;;;;-3.00;100.00;102719.28;5231671;28;19940;-79
2022/03/07 01:56:08;;;;;;;;;;;;;;;-3.01;100.00;102728.19;5232030;28;19913;-78
2022/03/07 01:58:38;;;;;;;;;;;;;;;-3.06;100.00;102722.41;5212794;28;19913;-79
2022/03/07 02:01:08;;;;;;;;;;;;;;;-3.13;100.00;102711.47;5231401;28;19919;-78
2022/03/07 02:03:39;;;;;;;;;;;;;;;-3.10;100.00;102713.88;5231532;28;19913;-79
2022/03/07 02:06:10;;;;;;;;;;;;;;;-3.10;100.00;102713.88;5234296;28;19947;-80
2022/03/07 02:08:41;;;;;;;;;;;;;;;-3.04;100.00;102703.81;5232485;28;20318;-78
2022/03/07 02:11:12;;;;;;;;;;;;;;;-3.07;100.00;102700.44;5213505;28;20413;-80
2022/03/07 02:13:42;;;;;;;;;;;;;;;-3.06;100.00;102698.63;5231313;28;19994;-80
2022/03/07 02:16:14;;;;;;;;;;;;;;;-3.04;100.00;102694.06;5232205;28;19913;-80
2022/03/07 02:18:45;;;;;;;;;;;;;;;-3.10;100.00;102692.75;5214718;28;19939;-82
2022/03/07 02:21:16;;;;;;;;;;;;;;;-3.05;100.00;102695.03;5232015;28;19917;-80
2022/03/07 02:23:47;;;;;;;;;;;;;;;-3.01;100.00;102695.63;5232063;28;19935;-81
2022/03/07 02:26:18;;;;;;;;;;;;;;;-2.98;100.00;102700.69;5232082;28;19913;-80
2022/03/07 02:28:48;;;;;;;;;;;;;;;-3.03;100.00;102695.75;5214549;28;19913;-80
2022/03/07 02:31:19;;;;;;;;;;;;;;;-3.07;100.00;102700.44;5214320;28;20389;-80
2022/03/07 02:33:49;;;;;;;;;;;;;;;-3.06;100.00;102703.91;5214296;28;19980;-80
2022/03/07 02:36:20;;;;;;;;;;;;;;;-3.05;100.00;102700.31;5214679;28;19954;-79
2022/03/07 02:38:50;;;;;;;;;;;;;;;-3.11;100.00;102698.16;5231974;28;19920;-79
2022/03/07 02:41:20;;;;;;;;;;;;;;;-3.14;100.00;102703.69;5213952;28;19938;-80
2022/03/07 02:43:51;;;;;;;;;;;;;;;-3.17;100.00;102701.28;5231282;28;19959;-79
2022/03/07 02:46:21;;;;;;;;;;;;;;;-3.17;100.00;102701.28;5232282;28;19982;-80
2022/03/07 02:48:51;;;;;;;;;;;;;;;-3.09;100.00;102701.53;5233060;28;19917;-80
2022/03/07 02:51:21;;;;;;;;;;;;;;;-3.02;100.00;102699.22;5232322;28;20297;-80
2022/03/07 02:53:52;;;;;;;;;;;;;;;-3.04;100.00;102695.88;5234782;28;19913;-80
2022/03/07 02:56:22;;;;;;;;;;;;;;;-3.06;100.00;102694.19;5215185;28;20220;-80
2022/03/07 02:58:52;;;;;;;;;;;;;;;-3.06;100.00;102698.63;5231733;28;19912;-80
2022/03/07 03:01:23;;;;;;;;;;;;;;;-3.10;100.00;102698.03;5232137;28;19913;-80
2022/03/07 03:03:53;;;;;;;;;;;;;;;-3.14;100.00;102693.94;5231960;28;19939;-80
2022/03/07 03:06:23;;;;;;;;;;;;;;;-3.12;100.00;102701.75;5232527;28;19913;-80
2022/03/07 03:08:53;;;;;;;;;;;;;;;-3.15;100.00;102688.78;5232640;28;19913;-80
2022/03/07 03:11:24;;;;;;;;;;;;;;;-3.13;100.00;102692.16;5239389;28;20003;-80
2022/03/07 03:13:54;;;;;;;;;;;;;;;-3.12;100.00;102697.31;5239336;28;19919;-78
2022/03/07 03:16:25;;;;;;;;;;;;;;;-3.14;100.00;102696.59;5239336;28;19913;-79
2022/03/07 03:18:55;;;;;;;;;;;;;;;-3.16;100.00;102697.66;5221536;28;19920;-79
2022/03/07 03:21:25;;;;;;;;;;;;;;;-3.24;100.00;102687.72;5239564;28;19917;-80
2022/03/07 03:23:55;;;;;;;;;;;;;;;-3.24;100.00;102694.81;5238482;28;19920;-80
2022/03/07 03:26:26;;;;;;;;;;;;;;;-3.20;100.00;102701.53;5236381;28;20132;-79
2022/03/07 03:28:56;;;;;;;;;;;;;;;-3.25;100.00;102701.06;5218272;28;19919;-79
2022/03/07 03:31:26;;;;;;;;;;;;;;;-3.26;100.00;102692.28;5238558;28;19920;-80
2022/03/07 03:33:56;;;;;;;;;;;;;;;-3.26;100.00;102696.75;5238350;28;20126;-81
2022/03/07 03:36:27;;;;;;;;;;;;;;;-3.23;100.00;102696.50;5238479;28;19912;-80
2022/03/07 03:38:57;;;;;;;;;;;;;;;-3.27;100.00;102705.63;5238924;28;19913;-81
2022/03/07 03:41:27;;;;;;;;;;;;;;;-3.35;100.00;102700.09;5221023;28;19912;-81
2022/03/07 03:43:57;;;;;;;;;;;;;;;-3.43;100.00;102711.25;5238248;28;20281;-80
2022/03/07 03:46:28;;;;;;;;;;;;;;;-3.44;100.00;102709.56;5238750;28;20397;-79
2022/03/07 03:48:58;;;;;;;;;;;;;;;-3.44;100.00;102710.41;5239127;28;20370;-78
2022/03/07 03:51:28;;;;;;;;;;;;;;;-3.41;100.00;102710.16;5238355;28;19945;-79
2022/03/07 03:53:58;;;;;;;;;;;;;;;-3.46;100.00;102712.31;5238551;28;19912;-79
2022/03/07 03:56:29;;;;;;;;;;;;;;;-3.52;100.00;102710.19;5242425;28;20372;-79
2022/03/07 03:58:59;;;;;;;;;;;;;;;-3.59;100.00;102710.75;5243044;28;19917;-80
2022/03/07 04:01:29;;;;;;;;;;;;;;;-3.65;100.00;102717.34;5242313;28;19913;-80
2022/03/07 04:03:59;;;;;;;;;;;;;;;-3.70;100.00;102708.94;5242810;28;19920;-80
2022/03/07 04:06:30;;;;;;;;;;;;;;;-3.67;100.00;102703.44;5243482;28;19912;-80
2022/03/07 04:09:00;;;;;;;;;;;;;;;-3.65;100.00;102717.34;5243266;28;19912;-80
2022/03/07 04:11:31;;;;;;;;;;;;;;;-3.71;100.00;102706.41;5243244;28;19981;-80
2022/03/07 04:14:02;;;;;;;;;;;;;;;-3.80;100.00;102708.81;5242050;28;19939;-80
2022/03/07 04:16:32;;;;;;;;;;;;;;;-3.83;100.00;102713.50;5243298;28;19923;-80
2022/03/07 04:19:03;;;;;;;;;;;;;;;-3.86;100.00;102709.28;5225313;28;19970;-79
2022/03/07 04:21:33;;;;;;;;;;;;;;;-3.90;100.00;102715.75;5242499;28;19920;-81
2022/03/07 04:24:04;;;;;;;;;;;;;;;-3.94;100.00;102700.25;5241896;28;19916;-80
2022/03/07 04:26:34;;;;;;;;;;;;;;;-3.98;100.00;102717.28;5224478;28;19912;-80
2022/03/07 04:29:10;;;;;;;;;;;;;;;-4.00;100.00;102706.00;5242122;28;19913;-80
2022/03/07 04:31:42;;;;;;;;;;;;;;;-4.02;100.00;102706.09;5241770;28;19913;-79
2022/03/07 04:34:13;;;;;;;;;;;;;;;-3.99;100.00;102699.75;5240794;28;19917;-82
2022/03/07 04:36:43;;;;;;;;;;;;;;;-4.05;100.00;102701.09;5218134;28;19958;-81
2022/03/07 04:39:13;;;;;;;;;;;;;;;-4.11;100.00;102705.03;5234589;28;19913;-82
2022/03/07 04:41:44;;;;;;;;;;;;;;;-4.05;100.00;102697.63;5234628;28;20015;-81
2022/03/07 04:44:15;;;;;;;;;;;;;;;-4.05;100.00;102697.63;5234547;28;19920;-82
2022/03/07 04:46:45;;;;;;;;;;;;;;;-4.04;100.00;102705.38;5234136;28;19913;-80
2022/03/07 04:49:15;;;;;;;;;;;;;;;-4.09;100.00;102711.03;5234896;28;19946;-80
2022/03/07 04:51:46;;;;;;;;;;;;;;;-4.16;100.00;102709.81;5215737;28;19916;-82
2022/03/07 04:54:16;;;;;;;;;;;;;;;-4.25;100.00;102710.47;5234571;28;19923;-81
2022/03/07 04:56:48;;;;;;;;;;;;;;;-4.30;100.00;102709.13;5216209;28;19920;-81
2022/03/07 04:59:18;;;;;;;;;;;;;;;-4.26;100.00;102707.94;5234276;28;20349;-80
2022/03/07 05:01:48;;;;;;;;;;;;;;;-4.19;100.00;102704.75;5234048;28;19916;-80
2022/03/07 05:04:25;;;;;;;;;;;;;;;-4.17;100.00;102699.38;5218278;28;20302;-78
2022/03/07 05:06:55;;;;;;;;;;;;;;;-4.09;100.00;102705.75;5229133;28;19912;-80
2022/03/07 05:09:25;;;;;;;;;;;;;;;-4.04;100.00;102704.56;5237404;28;19935;-79
2022/03/07 05:11:55;;;;;;;;;;;;;;;-4.03;100.00;102703.59;5246766;28;20116;-79
2022/03/07 05:14:26;;;;;;;;;;;;;;;-4.09;100.00;102700.47;5257341;28;19980;-80
2022/03/07 05:16:56;;;;;;;;;;;;;;;-4.12;100.00;102703.34;5254623;28;19916;-81
2022/03/07 05:19:26;;;;;;;;;;;;;;;-4.14;100.00;102705.25;5251766;28;19978;-80
2022/03/07 05:21:56;;;;;;;;;;;;;;;-4.16;100.00;102711.59;5255654;28;19917;-81
2022/03/07 05:24:27;;;;;;;;;;;;;;;-4.14;100.00;102707.06;5251539;28;19912;-80
2022/03/07 05:26:57;;;;;;;;;;;;;;;-4.04;100.00;102699.28;5259033;28;20008;-81
2022/03/07 05:29:27;;;;;;;;;;;;;;;-3.99;100.00;102707.69;5259485;28;19913;-81
2022/03/07 05:31:57;;;;;;;;;;;;;;;-3.94;100.00;102705.53;5242080;28;19916;-81
2022/03/07 05:34:28;;;;;;;;;;;;;;;-3.96;100.00;102708.28;5241687;28;19913;-80
2022/03/07 05:36:58;;;;;;;;;;;;;;;-3.93;100.00;102709.84;5243187;28;19913;-79
2022/03/07 05:39:28;;;;;;;;;;;;;;;-3.88;100.00;102697.16;5256785;28;19963;-81
2022/03/07 05:41:58;;;;;;;;;;;;;;;-3.81;100.00;102695.75;5257117;28;19997;-81
2022/03/07 05:44:29;;;;;;;;;;;;;;;-3.81;100.00;102704.50;5255356;28;19912;-81
2022/03/07 05:46:59;;;;;;;;;;;;;;;-3.79;100.00;102699.09;5254315;28;19920;-82
2022/03/07 05:49:29;;;;;;;;;;;;;;;-3.83;100.00;102698.50;5255171;28;19912;-81
2022/03/07 05:51:59;;;;;;;;;;;;;;;-3.82;100.00;102699.34;5256277;28;19920;-81
2022/03/07 05:54:30;;;;;;;;;;;;;;;-3.84;100.00;102698.63;5257266;28;19916;-81
2022/03/07 05:57:00;;;;;;;;;;;;;;;-3.83;100.00;102697.66;5256291;28;19976;-81
2022/03/07 05:59:30;;;;;;;;;;;;;;;-3.78;100.00;102700.78;5255042;28;20496;-80
2022/03/07 06:02:00;;;;;;;;;;;;;;;-3.75;100.00;102704.00;5237716;28;19917;-81
2022/03/07 06:04:30;;;;;;;;;;;;;;;-3.73;100.00;102706.53;5256267;28;19987;-81
2022/03/07 06:07:01;;;;;;;;;;;;;;;-3.68;100.00;102704.38;5237934;28;19917;-80
2022/03/07 06:09:34;;;;;;;;;;;;;;;-3.65;100.00;102706.78;5255790;28;19916;-80
2022/03/07 06:12:05;;;;;;;;;;;;;;;-3.63;100.00;102706.69;5255051;28;19912;-80
2022/03/07 06:14:35;;;;;;;;;;;;;;;-3.64;100.00;102715.56;5254754;28;19912;-81
2022/03/07 06:17:05;;;;;;;;;;;;;;;-3.63;100.00;102717.25;5238849;28;19967;-81
2022/03/07 06:19:36;;;;;;;;;;;;;;;-3.59;100.00;102723.97;5261888;28;20389;-81
2022/03/07 06:22:06;;;;;;;;;;;;;;;-3.60;100.00;102732.84;5241871;28;19977;-80
2022/03/07 06:24:36;;;;;;;;;;;;;;;-3.62;100.00;102727.69;5251366;28;20293;-80
2022/03/07 06:27:06;;;;;;;;;;;;;;;-3.68;100.00;102733.44;5255883;28;19919;-79
2022/03/07 06:29:37;;;;;;;;;;;;;;;-3.71;100.00;102731.00;5255999;28;19916;-80
2022/03/07 06:32:07;;;;;;;;;;;;;;;-3.70;100.00;102729.22;5282940;22;19947;-62
2022/03/07 06:34:38;;;;;;;;;;;;;;;-3.70;100.00;102732.69;5257951;28;19917;-62
2022/03/07 06:37:08;;;;;;;;;;;;;;;-3.69;100.00;102736.19;5248618;28;19912;-62
2022/03/07 06:39:38;;;;;;;;;;;;;;;-3.69;100.00;102731.75;5250282;28;19912;-62
2022/03/07 06:42:09;;;;;;;;;;;;;;;-3.70;100.00;102734.50;5267973;28;20311;-62
2022/03/07 06:44:40;;;;;;;;;;;;;;;-3.65;100.00;102735.00;5247426;28;19957;-62
2022/03/07 06:47:11;;;;;;;;;;;;;;;-3.58;100.00;102734.41;5250398;28;20006;-62
2022/03/07 06:49:45;;;;;;;;;;;;;;;-3.51;100.00;102726.88;5250313;28;20026;-62
2022/03/07 06:52:16;;;;;;;;;;;;;;;-3.44;100.00;102730.69;5250191;28;19916;-62
2022/03/07 06:54:46;;;;;;;;;;;;;;;-3.42;100.00;102731.41;5250074;28;20280;-62
2022/03/07 06:57:16;;;;;;;;;;;;;;;-3.33;100.00;102727.22;5250384;28;19912;-62
2022/03/07 06:59:47;;;;;;;;;;;;;;;-3.27;100.00;102742.59;5249842;28;19912;-62
2022/03/07 07:02:18;;;;;;;;;;;;;;;-3.22;100.00;102743.09;5249785;28;20291;-62
2022/03/07 07:04:48;;;;;;;;;;;;;;;-3.19;100.00;102746.34;5249742;28;19912;-64
2022/03/07 07:07:19;;;;;;;;;;;;;;;-3.13;100.00;102745.84;5250683;28;19958;-62
2022/03/07 07:09:49;;;;;;;;;;;;;;;-3.05;100.00;102747.88;5250087;28;19912;-62
2022/03/07 07:12:19;;;;;;;;;;;;;;;-2.92;100.00;102753.06;5249756;28;19962;-62
2022/03/07 07:14:49;;;;;;;;;;;;;;;-2.83;100.00;102755.78;5249483;28;19966;-62
2022/03/07 07:17:20;;;;;;;;;;;;;;;-2.76;100.00;102754.34;5249578;28;20328;-62
2022/03/07 07:19:50;;;;;;;;;;;;;;;-2.71;100.00;102756.63;5249737;28;20007;-62
2022/03/07 07:22:20;;;;;;;;;;;;;;;-2.63;100.00;102756.03;5249842;28;20383;-62
2022/03/07 07:24:51;;;;;;;;;;;;;;;-2.51;100.00;102752.38;5249500;28;19912;-62
2022/03/07 07:27:21;;;;;;;;;;;;;;;-2.37;100.00;102762.69;5249536;28;19912;-62
2022/03/07 07:29:52;;;;;;;;;;;;;;;-2.27;100.00;102763.59;5248796;28;20375;-62
2022/03/07 07:32:22;;;;;;;;;;;;;;;-2.17;100.00;102763.69;5249518;28;20107;-62
2022/03/07 07:34:52;;;;;;;;;;;;;;;-2.06;100.00;102767.16;5249286;28;20335;-62
2022/03/07 07:37:23;;;;;;;;;;;;;;;-1.99;100.00;102766.63;5249536;28;19912;-62
2022/03/07 07:39:53;;;;;;;;;;;;;;;-1.90;100.00;102768.50;5249378;28;19935;-63
2022/03/07 07:42:23;;;;;;;;;;;;;;;-1.80;100.00;102767.63;5249339;28;19916;-62
2022/03/07 07:44:54;;;;;;;;;;;;;;;-1.72;100.00;102772.25;5249187;28;19912;-62
2022/03/07 07:47:24;;;;;;;;;;;;;;;-1.62;100.00;102761.72;5241772;28;20371;-62
2022/03/07 07:49:54;;;;;;;;;;;;;;;-1.57;100.00;102765.69;5248683;28;19916;-62
2022/03/07 07:52:25;;;;;;;;;;;;;;;-1.52;100.00;102771.44;5248808;28;20398;-62
2022/03/07 07:54:55;;;;;;;;;;;;;;;-1.45;100.00;102763.81;5249092;28;19912;-62
2022/03/07 07:57:25;;;;;;;;;;;;;;;-1.36;100.00;102773.59;5249140;28;19912;-62
2022/03/07 07:59:55;;;;;;;;;;;;;;;-1.24;100.00;102777.03;5249084;28;20409;-62
2022/03/07 08:02:26;;;;;;;;;;;;;;;-1.13;100.00;102774.28;5248918;28;19924;-62
2022/03/07 08:04:56;;;;;;;;;;;;;;;-1.06;100.00;102780.72;5266847;28;20338;-62
2022/03/07 08:07:27;;;;;;;;;;;;;;;-0.98;100.00;102780.91;5249223;28;19912;-62
2022/03/07 08:09:57;;;;;;;;;;;;;;;-0.90;100.00;102775.78;5249362;28;19916;-62
2022/03/07 08:12:28;;;;;;;;;;;;;;;-0.83;100.00;102782.22;5249095;28;19913;-62
2022/03/07 08:14:58;;;;;;;;;;;;;;;-0.75;100.00;102781.53;5248915;28;19934;-63
2022/03/07 08:17:28;;;;;;;;;;;;;;;-1.16;100.00;102706.47;5248799;28;19912;-63
2022/03/07 08:19:59;;;;;;;;;;;;;;;-0.65;100.00;102781.59;5249046;28;20041;-62
2022/03/07 08:22:29;;;;;;;;;;;;;;;-0.57;100.00;102779.06;5248857;28;19916;-62
2022/03/07 08:24:59;;;;;;;;;;;;;;;-0.52;100.00;102779.50;5248792;28;20298;-62
2022/03/07 08:27:30;;;;;;;;;;;;;;;-0.44;100.00;102784.97;5249201;28;20302;-62
2022/03/07 08:30:07;;;;;;;;;;;;;;;-0.39;100.00;102796.03;5248598;28;19916;-62
2022/03/07 08:32:40;;;;;;;;;;;;;;;-0.30;100.00;102781.94;5248971;28;20280;-62
2022/03/07 08:35:11;;;;;;;;;;;;;;;-0.19;100.00;102779.16;5248490;28;19912;-62
2022/03/07 08:37:42;;;;;;;;;;;;;;;-0.13;100.00;102780.41;5249026;28;19957;-62
2022/03/07 08:40:13;;;;;;;;;;;;;;;-0.07;100.00;102785.19;5249195;28;19912;-62
2022/03/07 08:42:44;;;;;;;;;;;;;;;0.00;100.00;102781.81;5270748;28;19920;-62
2022/03/07 08:45:14;;;;;;;;;;;;;;;0.08;100.00;102777.63;5252455;28;19919;-62
2022/03/07 08:47:45;;;;;;;;;;;;;;;0.16;100.00;102783.06;5252733;28;19912;-63
2022/03/07 08:50:18;;;;;;;;;;;;;;;0.27;100.00;102778.47;5252450;28;20331;-63
2022/03/07 08:52:48;;;;;;;;;;;;;;;0.39;100.00;102775.63;5252260;28;19912;-63
2022/03/07 08:55:18;;;;;;;;;;;;;;;0.46;100.00;102772.28;5235625;28;19939;-63
2022/03/07 08:57:49;;;;;;;;;;;;;;;0.50;100.00;102765.69;5232151;28;19912;-63
2022/03/07 09:00:19;;;;;;;;;;;;;;;0.58;100.00;102762.28;5231782;28;19912;-63
2022/03/07 09:02:49;;;;;;;;;;;;;;;0.63;100.00;102760.88;5231813;28;19962;-63
2022/03/07 09:05:20;;;;;;;;;;;;;;;0.72;100.00;102751.22;5231190;28;20011;-63
2022/03/07 09:07:50;;;;;;;;;;;;;;;0.82;100.00;102748.53;5237317;28;20329;-63
2022/03/07 09:10:20;;;;;;;;;;;;;;;0.95;100.00;102741.03;5243480;28;19912;-63
2022/03/07 09:12:54;;;;;;;;;;;;;;;1.07;100.00;102739.03;5252094;28;19932;-63
2022/03/07 09:15:24;;;;;;;;;;;;;;;1.16;100.00;102731.00;5251543;28;19919;-64
2022/03/07 09:17:54;;;;;;;;;;;;;;;1.23;100.00;102731.25;5251832;28;19911;-64
2022/03/07 09:20:25;;;;;;;;;;;;;;;1.33;100.00;102737.34;5252038;28;19912;-64
2022/03/07 09:22:55;;;;;;;;;;;;;;;1.48;100.00;102738.50;5251760;28;20005;-63
2022/03/07 09:25:25;;;;;;;;;;;;;;;1.58;100.00;102736.63;5251476;28;19912;-64
2022/03/07 09:27:56;;;;;;;;;;;;;;;1.77;100.00;102732.13;5253422;28;20295;-64
2022/03/07 09:30:26;;;;;;;;;;;;;;;1.82;100.00;102736.00;5254866;28;19912;-64
2022/03/07 09:32:58;;;;;;;;;;;;;;;1.90;100.00;102737.94;5252502;28;19951;-62
2022/03/07 09:35:28;;;;;;;;;;;;;;;1.97;100.00;102729.19;5251630;28;19951;-63
2022/03/07 09:37:59;;;;;;;;;;;;;;;2.09;100.00;102734.25;5251249;28;20395;-63
2022/03/07 09:40:29;;;;;;;;;;;;;;;2.09;100.00;102732.41;5269494;28;19912;-63
2022/03/07 09:43:00;;;;;;;;;;;;;;;2.16;100.00;102735.31;5251331;28;19962;-63
2022/03/07 09:45:30;;;;;;;;;;;;;;;1.89;100.00;102662.50;5251296;28;19912;-63
2022/03/07 09:48:01;;;;;;;;;;;;;;;2.45;100.00;102727.84;5251447;28;20457;-64
2022/03/07 09:50:31;;;;;;;;;;;;;;;2.50;100.00;102724.72;5251108;28;19912;-63
2022/03/07 09:53:01;;;;;;;;;;;;;;;2.51;99.82;102721.06;5250241;28;19912;-64
2022/03/07 09:55:32;;;;;;;;;;;;;;;2.68;100.00;102717.47;5250960;28;19981;-63
2022/03/07 09:58:03;;;;;;;;;;;;;;;2.82;100.00;102721.41;5251020;28;19962;-63
2022/03/07 10:00:33;;;;;;;;;;;;;;;2.87;98.13;102721.75;5250878;28;19920;-62
2022/03/07 10:03:09;;;;;;;;;;;;;;;3.01;98.21;102713.13;5250530;28;19920;-63
2022/03/07 10:05:44;;;;;;;;;;;;;;;3.04;98.96;102710.16;5250850;28;19912;-63
2022/03/07 10:08:23;;;;;;;;;;;;;;;3.08;94.06;102708.84;5250824;28;20336;-63
2022/03/07 10:10:54;;;;;;;;;;;;;;;2.94;93.81;102688.91;5250861;28;20344;-63
2022/03/07 10:13:24;;;;;;;;;;;;;;;3.10;95.01;102692.66;5250393;28;19912;-62
2022/03/07 10:15:59;;;;;;;;;;;;;;;3.17;94.43;102685.69;5251088;28;20451;-63
2022/03/07 10:18:29;;;;;;;;;;;;;;;3.27;92.56;102689.88;5250951;28;19912;-62
2022/03/07 10:21:01;;;;;;;;;;;;;;;3.34;92.54;102688.22;5251020;28;20318;-64
2022/03/07 10:23:31;;;;;;;;;;;;;;;3.37;89.52;102689.72;5250197;28;19917;-62
2022/03/07 10:26:09;;;;;;;;;;;;;;;3.23;89.02;102691.19;5250911;28;19912;-61
2022/03/07 10:28:41;;;;;;;;;;;;;;;3.22;89.55;102689.50;5251208;28;19912;-62
2022/03/07 10:31:15;;;;;;;;;;;;;;;3.32;89.12;102673.34;5250420;28;19969;-63
2022/03/07 10:33:47;;;;;;;;;;;;;;;3.41;88.71;102676.88;5250146;28;19919;-62
2022/03/07 10:36:17;;;;;;;;;;;;;;;3.45;88.63;102672.91;5250378;28;19912;-62
2022/03/07 10:38:55;;;;;;;;;;;;;;;3.56;88.80;102664.53;5250205;28;20450;-63
2022/03/07 10:41:32;;;;;;;;;;;;;;;3.63;87.75;102666.38;5250264;28;20049;-62
2022/03/07 10:44:04;;;;;;;;;;;;;;;3.61;85.40;102664.88;5249810;28;20410;-62
2022/03/07 10:46:34;;;;;;;;;;;;;;;3.66;85.63;102667.91;5249955;28;19920;-63
2022/03/07 10:49:07;;;;;;;;;;;;;;;3.77;86.47;102656.88;5250237;28;19934;-63
2022/03/07 10:51:38;;;;;;;;;;;;;;;3.79;84.52;102654.88;5249857;28;19919;-63
2022/03/07 10:54:11;;;;;;;;;;;;;;;3.82;86.22;102665.22;5249985;28;19912;-63
2022/03/07 10:56:48;;;;;;;;;;;;;;;3.86;84.42;102650.53;5249758;28;19954;-62
2022/03/07 10:59:26;;;;;;;;;;;;;;;3.88;83.66;102642.34;5249946;28;19958;-63
2022/03/07 11:01:59;;;;;;;;;;;;;;;4.01;84.63;102643.50;5249698;28;19977;-63
2022/03/07 11:04:30;;;;;;;;;;;;;;;4.08;83.01;102640.97;5249563;28;19912;-62
2022/03/07 11:07:00;;;;;;;;;;;;;;;4.05;82.55;102634.13;5249469;28;19912;-62
2022/03/07 11:09:30;;;;;;;;;;;;;;;4.26;86.40;102625.56;5249504;28;19947;-63
2022/03/07 11:12:02;;;;;;;;;;;;;;;4.28;81.83;102630.75;5249406;28;19912;-62
2022/03/07 11:14:32;;;;;;;;;;;;;;;4.38;83.88;102624.19;5249485;28;19912;-62
2022/03/07 11:17:03;;;;;;;;;;;;;;;4.11;82.81;102567.63;5249632;28;19939;-62
2022/03/07 11:19:34;;;;;;;;;;;;;;;4.48;79.79;102628.50;5249345;28;20010;-62
2022/03/07 11:22:05;;;;;;;;;;;;;;;4.36;80.94;102625.38;5248828;28;20451;-62
2022/03/07 11:24:36;;;;;;;;;;;;;;;4.47;80.71;102622.31;5249340;28;19919;-62
2022/03/07 11:27:08;;;;;;;;;;;;;;;4.51;80.52;102628.16;5249437;28;19912;-63
2022/03/07 11:29:39;;;;;;;;;;;;;;;4.64;82.77;102610.53;5249437;28;19927;-63
2022/03/07 11:32:10;;;;;;;;;;;;;;;4.73;79.88;102614.84;5248965;28;19916;-65
2022/03/07 11:34:54;;;;;;;;;;;;;;;4.66;78.69;102611.22;5267378;28;19912;-62
2022/03/07 11:37:30;;;;;;;;;;;;;;;4.63;78.51;102608.88;5249307;28;19999;-63
2022/03/07 11:40:01;;;;;;;;;;;;;;;4.60;76.82;102613.75;5249299;28;19912;-62
2022/03/07 11:42:36;;;;;;;;;;;;;;;4.59;77.63;102610.25;5249125;28;19952;-62
2022/03/07 11:45:11;;;;;;;;;;;;;;;4.71;78.15;102606.16;5249201;28;19912;-62
2022/03/07 11:47:41;;;;;;;;;;;;;;;4.80;78.41;102596.28;5249049;28;19962;-62
2022/03/07 11:50:12;;;;;;;;;;;;;;;4.68;76.35;102601.16;5249299;28;20268;-62
2022/03/07 11:52:43;;;;;;;;;;;;;;;4.63;76.53;102590.16;5248880;28;19931;-63
2022/03/07 11:55:19;;;;;;;;;;;;;;;4.83;78.08;102579.03;5248647;28;19965;-63
2022/03/07 11:57:58;;;;;;;;;;;;;;;5.11;76.51;102574.81;5248995;28;19912;-63
2022/03/07 12:00:34;;;;;;;;;;;;;;;5.15;74.46;102575.31;5249147;28;20064;-63
2022/03/07 12:03:12;;;;;;;;;;;;;;;5.02;74.45;102563.34;5248956;28;20441;-63
2022/03/07 12:05:43;;;;;;;;;;;;;;;5.06;74.45;102561.13;5248719;28;19923;-63
2022/03/07 12:08:14;;;;;;;;;;;;;;;5.24;73.06;102552.78;5248947;28;19920;-63
2022/03/07 12:10:52;;;;;;;;;;;;;;;5.20;72.06;102562.22;5249170;28;20294;-63
2022/03/07 12:13:22;;;;;;;;;;;;;;;4.93;72.43;102552.84;5248707;28;19918;-63
2022/03/07 12:15:55;;;;;;;;;;;;;;;4.96;72.28;102549.81;5250638;28;19916;-63
2022/03/07 12:18:27;;;;;;;;;;;;;;;5.14;74.18;102538.84;5253012;28;19912;-63
2022/03/07 12:20:58;;;;;;;;;;;;;;;5.42;74.30;102537.25;5271296;28;20390;-63
2022/03/07 12:23:30;;;;;;;;;;;;;;;5.55;72.12;102544.66;5252650;28;19922;-63
2022/03/07 12:26:02;;;;;;;;;;;;;;;5.55;70.84;102542.81;5253240;28;19966;-64
2022/03/07 12:28:34;;;;;;;;;;;;;;;5.62;71.98;102537.56;5252945;28;19916;-63
2022/03/07 12:31:05;;;;;;;;;;;;;;;5.55;71.67;102533.94;5252455;28;19912;-64
2022/03/07 12:33:36;;;;;;;;;;;;;;;5.52;70.69;102526.25;5267431;22;19924;-60
2022/03/07 12:36:09;;;;;;;;;;;;;;;5.58;72.32;102526.38;5254207;28;19920;-60
2022/03/07 12:38:47;;;;;;;;;;;;;;;5.82;71.56;102519.94;5255752;28;20377;-60
2022/03/07 12:41:19;;;;;;;;;;;;;;;5.90;71.30;102522.56;5254747;28;19916;-60
2022/03/07 12:43:51;;;;;;;;;;;;;;;5.88;69.89;102510.31;5254624;28;20279;-60
2022/03/07 12:46:21;;;;;;;;;;;;;;;5.85;70.02;102503.47;5288879;28;19912;-60
2022/03/07 12:48:53;;;;;;;;;;;;;;;5.87;71.23;102506.81;5273195;28;20436;-60
2022/03/07 12:51:24;;;;;;;;;;;;;;;5.66;69.57;102501.34;5254992;28;19912;-60